createdAt,value
2022-11-08T00:00:27.968Z,12.54
2022-11-08T00:01:28.012Z,12.60
2022-11-08T00:02:28.059Z,12.60
2022-11-08T00:03:27.978Z,12.50
2022-11-08T00:04:27.962Z,12.50
2022-11-08T00:05:27.960Z,12.47
2022-11-08T00:06:27.958Z,12.47
2022-11-08T00:07:27.952Z,12.41
2022-11-08T00:08:27.956Z,12.45
2022-11-08T00:09:27.978Z,12.42
2022-11-08T00:10:27.941Z,12.41
2022-11-08T00:11:27.949Z,12.34
2022-11-08T00:12:27.960Z,12.34
2022-11-08T00:13:27.968Z,12.39
2022-11-08T00:14:27.958Z,12.38
2022-11-08T00:15:27.979Z,12.38
2022-11-08T00:16:27.941Z,12.38
2022-11-08T00:17:27.943Z,12.34
2022-11-08T00:18:27.948Z,12.31
2022-11-08T00:19:27.952Z,12.32
2022-11-08T00:20:28.007Z,12.29
2022-11-08T00:21:27.948Z,12.24
2022-11-08T00:22:27.943Z,12.28
2022-11-08T00:23:27.948Z,12.31
2022-11-08T00:24:27.942Z,12.23
2022-11-08T00:25:27.956Z,12.17
2022-11-08T00:26:27.950Z,12.24
2022-11-08T00:27:27.949Z,12.19
2022-11-08T00:28:27.929Z,12.19
2022-11-08T00:29:27.957Z,12.20
2022-11-08T00:30:27.948Z,12.17
2022-11-08T00:31:27.923Z,12.19
2022-11-08T00:32:27.927Z,12.19
2022-11-08T00:33:27.934Z,12.17
2022-11-08T00:34:27.928Z,12.21
2022-11-08T00:35:27.931Z,12.16
2022-11-08T00:36:27.956Z,12.19
2022-11-08T00:37:27.925Z,12.21
2022-11-08T00:38:27.955Z,12.17
2022-11-08T00:39:27.937Z,12.14
2022-11-08T00:40:27.923Z,12.20
2022-11-08T00:41:27.929Z,12.17
2022-11-08T00:42:27.924Z,12.12
2022-11-08T00:43:27.932Z,12.13
2022-11-08T00:44:27.919Z,12.13
2022-11-08T00:45:27.923Z,12.07
2022-11-08T00:46:27.951Z,12.05
2022-11-08T00:47:27.918Z,11.99
2022-11-08T00:48:27.925Z,12.04
2022-11-08T00:49:27.910Z,11.99
2022-11-08T00:50:27.915Z,12.07
2022-11-08T00:51:27.962Z,12.07
2022-11-08T00:52:27.923Z,12.07
2022-11-08T00:53:27.941Z,12.02
2022-11-08T00:54:27.907Z,11.98
2022-11-08T00:55:27.925Z,12.07
2022-11-08T00:56:27.956Z,11.96
2022-11-08T00:57:46.824Z,12.10
2022-11-08T00:58:28.490Z,12.02
2022-11-08T00:59:27.942Z,12.02
2022-11-08T01:00:27.961Z,11.99
2022-11-08T01:01:28.031Z,12.02
2022-11-08T01:02:27.975Z,12.02
2022-11-08T01:03:27.916Z,11.99
2022-11-08T01:04:27.911Z,11.96
2022-11-08T01:05:27.937Z,11.99
2022-11-08T01:06:27.905Z,11.91
2022-11-08T01:07:27.953Z,11.98
2022-11-08T01:08:27.899Z,12.02
2022-11-08T01:09:27.901Z,11.99
2022-11-08T01:10:27.948Z,11.96
2022-11-08T01:11:27.905Z,11.99
2022-11-08T01:12:27.901Z,12.04
2022-11-08T01:13:27.915Z,12.02
2022-11-08T01:14:27.914Z,11.98
2022-11-08T01:15:27.957Z,11.99
2022-11-08T01:16:27.904Z,11.98
2022-11-08T01:17:27.927Z,11.98
2022-11-08T01:18:27.922Z,11.98
2022-11-08T01:19:27.888Z,12.07
2022-11-08T01:20:27.922Z,11.90
2022-11-08T01:21:27.879Z,11.95
2022-11-08T01:22:27.898Z,12.05
2022-11-08T01:23:27.902Z,11.99
2022-11-08T01:24:27.878Z,12.02
2022-11-08T01:25:27.901Z,12.02
2022-11-08T01:26:27.892Z,11.94
2022-11-08T01:27:27.893Z,12.01
2022-11-08T01:28:27.871Z,11.99
2022-11-08T01:29:27.931Z,11.94
2022-11-08T01:30:27.886Z,12.02
2022-11-08T01:31:27.886Z,11.95
2022-11-08T01:32:27.858Z,12.01
2022-11-08T01:33:27.866Z,12.05
2022-11-08T01:34:27.877Z,12.02
2022-11-08T01:35:27.881Z,11.98
2022-11-08T01:36:27.864Z,11.90
2022-11-08T01:37:27.864Z,12.05
2022-11-08T01:38:27.886Z,11.90
2022-11-08T01:39:27.880Z,12.01
2022-11-08T01:40:27.860Z,11.98
2022-11-08T01:41:27.861Z,11.95
2022-11-08T01:42:27.868Z,11.95
2022-11-08T01:43:27.881Z,11.99
2022-11-08T01:44:27.849Z,11.94
2022-11-08T01:45:27.889Z,12.02
2022-11-08T01:46:27.853Z,11.96
2022-11-08T01:47:27.868Z,12.01
2022-11-08T01:48:27.845Z,11.95
2022-11-08T01:49:27.868Z,11.91
2022-11-08T01:50:27.851Z,11.98
2022-11-08T01:51:27.857Z,12.05
2022-11-08T01:52:27.845Z,12.07
2022-11-08T01:53:27.836Z,12.04
2022-11-08T01:54:27.834Z,12.09
2022-11-08T01:55:27.850Z,12.04
2022-11-08T01:56:27.840Z,12.07
2022-11-08T01:57:27.841Z,12.07
2022-11-08T01:58:27.833Z,12.16
2022-11-08T01:59:27.851Z,12.16
2022-11-08T02:00:27.870Z,12.07
2022-11-08T02:01:27.945Z,12.14
2022-11-08T02:02:27.906Z,12.10
2022-11-08T02:03:27.842Z,12.17
2022-11-08T02:04:27.845Z,12.13
2022-11-08T02:05:27.824Z,12.16
2022-11-08T02:06:27.840Z,12.17
2022-11-08T02:07:27.819Z,12.19
2022-11-08T02:08:27.827Z,12.19
2022-11-08T02:09:27.832Z,12.21
2022-11-08T02:10:27.818Z,12.16
2022-11-08T02:11:27.839Z,12.17
2022-11-08T02:12:27.821Z,12.20
2022-11-08T02:13:27.818Z,12.17
2022-11-08T02:14:27.826Z,12.28
2022-11-08T02:15:27.818Z,12.21
2022-11-08T02:16:27.838Z,12.27
2022-11-08T02:17:27.809Z,12.23
2022-11-08T02:18:27.809Z,12.27
2022-11-08T02:19:27.823Z,12.16
2022-11-08T02:20:27.827Z,12.13
2022-11-08T02:21:27.815Z,12.16
2022-11-08T02:22:27.845Z,12.21
2022-11-08T02:23:27.852Z,12.16
2022-11-08T02:24:27.819Z,12.17
2022-11-08T02:25:27.820Z,12.14
2022-11-08T02:26:27.807Z,12.17
2022-11-08T02:27:27.816Z,12.10
2022-11-08T02:28:27.817Z,12.21
2022-11-08T02:29:27.793Z,12.13
2022-11-08T02:30:27.794Z,12.14
2022-11-08T02:31:27.803Z,12.16
2022-11-08T02:32:27.874Z,12.10
2022-11-08T02:33:27.819Z,12.19
2022-11-08T02:34:27.797Z,12.14
2022-11-08T02:35:27.789Z,12.17
2022-11-08T02:36:27.802Z,12.12
2022-11-08T02:37:27.811Z,12.13
2022-11-08T02:38:27.849Z,12.13
2022-11-08T02:39:27.788Z,12.17
2022-11-08T02:40:27.793Z,12.13
2022-11-08T02:41:27.775Z,12.04
2022-11-08T02:42:27.789Z,12.04
2022-11-08T02:43:27.786Z,12.02
2022-11-08T02:44:27.800Z,12.10
2022-11-08T02:45:27.792Z,12.10
2022-11-08T02:46:27.801Z,12.13
2022-11-08T02:47:27.795Z,12.13
2022-11-08T02:48:27.782Z,12.12
2022-11-08T02:52:08.358Z,12.07
2022-11-08T02:53:08.367Z,11.99
2022-11-08T02:54:08.336Z,12.05
2022-11-08T02:55:09.112Z,12.02
2022-11-08T02:56:08.935Z,12.02
2022-11-08T02:57:09.291Z,12.02
2022-11-08T02:58:08.762Z,12.10
2022-11-08T02:59:08.324Z,12.05
2022-11-08T03:00:08.317Z,12.05
2022-11-08T03:01:08.350Z,12.10
2022-11-08T03:02:08.372Z,12.04
2022-11-08T03:03:08.322Z,12.07
2022-11-08T03:04:08.324Z,12.12
2022-11-08T03:05:08.339Z,11.96
2022-11-08T03:06:08.306Z,11.99
2022-11-08T03:13:53.664Z,12.07
2022-11-08T03:14:52.771Z,12.05
2022-11-08T03:15:52.738Z,12.09
2022-11-08T03:16:53.850Z,12.04
2022-11-08T03:17:52.707Z,12.07
2022-11-08T03:18:52.744Z,12.01
2022-11-08T03:19:52.714Z,12.09
2022-11-08T03:20:52.825Z,12.09
2022-11-08T03:21:52.797Z,12.05
2022-11-08T03:22:52.718Z,12.02
2022-11-08T03:23:53.667Z,12.01
2022-11-08T03:24:52.721Z,12.07
2022-11-08T03:25:52.752Z,11.96
2022-11-08T03:26:52.816Z,11.98
2022-11-08T03:27:52.687Z,11.98
2022-11-08T03:28:52.705Z,11.96
2022-11-08T03:29:52.785Z,11.96
2022-11-08T03:30:52.691Z,11.98
2022-11-08T03:31:52.679Z,11.99
2022-11-08T03:32:52.679Z,11.90
2022-11-08T03:33:53.290Z,11.98
2022-11-08T03:34:52.689Z,11.91
2022-11-08T03:35:52.664Z,11.91
2022-11-08T03:36:52.666Z,11.88
2022-11-08T03:37:52.662Z,11.99
2022-11-08T03:38:52.757Z,11.96
2022-11-08T03:39:52.716Z,11.80
2022-11-08T03:40:52.694Z,11.79
2022-11-08T03:41:52.680Z,11.73
2022-11-08T03:42:52.767Z,11.72
2022-11-08T03:43:52.751Z,11.65
2022-11-08T03:44:52.733Z,11.64
2022-11-08T03:45:52.716Z,11.51
2022-11-08T03:46:52.658Z,11.51
2022-11-08T03:47:53.174Z,11.49
2022-11-08T03:48:52.674Z,11.57
2022-11-08T03:49:53.173Z,11.52
2022-11-08T03:50:52.753Z,11.52
2022-11-08T03:51:52.717Z,11.52
2022-11-08T03:52:52.646Z,11.54
2022-11-08T03:53:52.740Z,11.44
2022-11-08T03:54:52.665Z,11.52
2022-11-08T03:55:53.310Z,11.57
2022-11-08T03:56:52.661Z,11.49
2022-11-08T03:57:52.694Z,11.46
2022-11-08T03:58:52.668Z,11.44
2022-11-08T03:59:52.695Z,11.46
2022-11-08T04:00:52.722Z,11.43
2022-11-08T04:01:52.791Z,11.37
2022-11-08T04:02:53.176Z,11.47
2022-11-08T04:03:52.686Z,11.36
2022-11-08T04:04:52.930Z,11.39
2022-11-08T04:05:52.645Z,11.35
2022-11-08T04:06:52.622Z,11.25
2022-11-08T04:07:52.625Z,11.22
2022-11-08T04:08:52.695Z,11.19
2022-11-08T04:09:52.688Z,11.14
2022-11-08T04:10:52.818Z,11.14
2022-11-08T04:11:52.656Z,11.11
2022-11-08T04:12:52.606Z,11.19
2022-11-08T04:20:31.437Z,10.97
2022-11-08T04:21:30.854Z,10.99
2022-11-08T04:22:30.884Z,10.86
2022-11-08T04:23:30.856Z,10.91
2022-11-08T04:24:31.740Z,10.88
2022-11-08T04:25:34.977Z,10.86
2022-11-08T04:26:31.676Z,10.89
2022-11-08T04:27:31.812Z,10.89
2022-11-08T04:28:31.666Z,10.91
2022-11-08T04:29:30.862Z,10.84
2022-11-08T04:30:31.691Z,10.84
2022-11-08T04:31:31.567Z,10.86
2022-11-08T04:32:31.545Z,10.89
2022-11-08T04:33:31.711Z,10.89
2022-11-08T04:34:30.870Z,10.82
2022-11-08T04:35:30.844Z,10.88
2022-11-08T04:36:30.828Z,10.91
2022-11-08T04:37:30.843Z,10.91
2022-11-08T04:38:30.854Z,10.86
2022-11-08T04:39:30.828Z,10.88
2022-11-08T04:40:30.830Z,10.89
2022-11-08T04:41:30.846Z,10.88
2022-11-08T04:42:30.852Z,10.88
2022-11-08T04:43:30.833Z,10.92
2022-11-08T04:44:30.821Z,10.92
2022-11-08T04:45:30.827Z,10.91
2022-11-08T04:46:30.832Z,10.92
2022-11-08T04:47:36.024Z,10.86
2022-11-08T04:48:30.815Z,10.92
2022-11-08T04:49:30.821Z,10.84
2022-11-08T04:50:30.821Z,10.78
2022-11-08T04:51:30.813Z,10.84
2022-11-08T04:52:30.814Z,10.73
2022-11-08T04:53:30.833Z,10.70
2022-11-08T04:54:30.824Z,10.61
2022-11-08T04:55:30.826Z,10.55
2022-11-08T04:56:30.815Z,10.59
2022-11-08T04:57:30.808Z,10.48
2022-11-08T04:58:30.813Z,10.42
2022-11-08T04:59:30.794Z,10.47
2022-11-08T05:00:30.810Z,10.40
2022-11-08T05:01:31.002Z,10.36
2022-11-08T05:02:30.953Z,10.40
2022-11-08T05:03:30.801Z,10.30
2022-11-08T05:04:30.816Z,10.22
2022-11-08T05:05:30.804Z,10.29
2022-11-08T05:06:30.795Z,10.30
2022-11-08T05:07:30.793Z,10.25
2022-11-08T05:16:25.597Z,10.17
2022-11-08T05:17:25.901Z,10.15
2022-11-08T05:18:26.007Z,10.22
2022-11-08T05:19:25.955Z,10.17
2022-11-08T05:20:25.114Z,10.15
2022-11-08T05:21:25.484Z,10.18
2022-11-08T05:22:25.159Z,10.18
2022-11-08T05:23:25.078Z,10.07
2022-11-08T05:24:25.041Z,10.07
2022-11-08T05:25:25.831Z,10.02
2022-11-08T05:26:25.930Z,10.17
2022-11-08T05:27:26.021Z,10.15
2022-11-08T05:28:25.926Z,10.12
2022-11-08T05:29:25.049Z,10.11
2022-11-08T05:30:25.940Z,10.15
2022-11-08T05:31:25.886Z,10.07
2022-11-08T05:32:25.060Z,10.02
2022-11-08T05:33:25.031Z,10.07
2022-11-08T05:34:25.049Z,10.07
2022-11-08T05:35:25.017Z,10.07
2022-11-08T05:36:25.013Z,10.11
2022-11-08T05:37:25.061Z,10.07
2022-11-08T05:38:25.024Z,9.97
2022-11-08T05:39:28.263Z,9.93
2022-11-08T05:40:28.248Z,9.91
2022-11-08T05:41:25.015Z,10.01
2022-11-08T05:42:25.030Z,9.94
2022-11-08T05:43:25.037Z,10.01
2022-11-08T05:44:25.033Z,10.08
2022-11-08T05:45:25.026Z,10.07
2022-11-08T05:46:25.034Z,10.05
2022-11-08T05:47:25.011Z,10.05
2022-11-08T05:48:25.072Z,10.04
2022-11-08T05:49:24.995Z,10.09
2022-11-08T05:50:24.994Z,10.11
2022-11-08T05:51:25.045Z,10.05
2022-11-08T05:52:36.582Z,10.08
2022-11-08T05:53:25.883Z,9.97
2022-11-08T05:54:25.346Z,10.01
2022-11-08T05:55:25.144Z,9.97
2022-11-08T05:56:25.037Z,9.96
2022-11-08T05:57:25.000Z,9.99
2022-11-08T05:58:25.561Z,9.94
2022-11-08T05:59:25.014Z,9.91
2022-11-08T06:02:16.365Z,9.93
2022-11-08T06:05:42.587Z,9.87
2022-11-08T06:06:42.602Z,9.83
2022-11-08T06:07:42.111Z,9.89
2022-11-08T06:08:44.996Z,9.86
2022-11-08T06:09:42.024Z,9.83
2022-11-08T06:10:42.954Z,9.81
2022-11-08T06:11:42.770Z,9.75
2022-11-08T06:12:42.737Z,9.78
2022-11-08T06:13:42.883Z,9.79
2022-11-08T06:14:42.532Z,9.79
2022-11-08T06:15:42.013Z,9.75
2022-11-08T06:16:42.012Z,9.72
2022-11-08T06:17:41.996Z,9.74
2022-11-08T06:18:42.057Z,9.81
2022-11-08T06:19:41.988Z,9.81
2022-11-08T06:20:41.980Z,9.75
2022-11-08T06:21:42.006Z,9.74
2022-11-08T06:22:42.027Z,9.75
2022-11-08T06:23:41.988Z,9.79
2022-11-08T06:24:41.993Z,9.79
2022-11-08T06:25:47.293Z,9.81
2022-11-08T06:26:41.969Z,9.71
2022-11-08T06:27:41.987Z,9.75
2022-11-08T06:28:41.984Z,9.79
2022-11-08T06:29:42.016Z,9.86
2022-11-08T06:30:42.060Z,9.81
2022-11-08T06:31:43.208Z,9.83
2022-11-08T06:32:42.042Z,9.81
2022-11-08T06:33:42.062Z,9.75
2022-11-08T06:34:42.007Z,9.75
2022-11-08T06:35:42.060Z,9.71
2022-11-08T06:36:42.046Z,9.75
2022-11-08T06:37:42.075Z,9.76
2022-11-08T06:38:42.068Z,9.71
2022-11-08T06:39:42.038Z,9.79
2022-11-08T06:40:42.020Z,9.79
2022-11-08T06:41:42.017Z,9.84
2022-11-08T06:42:41.971Z,9.83
2022-11-08T06:43:42.055Z,9.79
2022-11-08T06:44:42.037Z,9.84
2022-11-08T06:45:42.029Z,9.83
2022-11-08T06:46:41.997Z,9.86
2022-11-08T06:47:41.938Z,9.83
2022-11-08T06:48:42.078Z,9.83
2022-11-08T06:49:41.953Z,9.89
2022-11-08T06:51:00.458Z,9.84
2022-11-08T06:51:42.905Z,9.84
2022-11-08T06:52:52.237Z,9.91
2022-11-08T06:53:52.181Z,9.89
2022-11-08T06:54:53.801Z,9.87
2022-11-08T06:55:55.720Z,9.94
2022-11-08T06:56:54.005Z,9.97
2022-11-08T06:57:52.295Z,9.93
2022-11-08T06:58:42.448Z,9.94
2022-11-08T06:59:53.846Z,9.93
2022-11-08T07:00:42.478Z,10.02
2022-11-08T07:01:45.448Z,9.91
2022-11-08T07:02:42.207Z,9.97
2022-11-08T07:03:42.014Z,9.93
2022-11-08T07:04:53.603Z,9.89
2022-11-08T07:05:42.656Z,9.99
2022-11-08T07:08:42.046Z,10.26
2022-11-08T07:13:22.380Z,10.63
2022-11-08T07:14:39.623Z,10.71
2022-11-08T07:15:22.041Z,10.76
2022-11-08T07:16:31.616Z,10.82
2022-11-08T07:17:21.811Z,10.76
2022-11-08T07:18:30.614Z,10.86
2022-11-08T07:19:32.737Z,10.84
2022-11-08T07:20:21.650Z,10.81
2022-11-08T07:21:30.417Z,11.02
2022-11-08T07:22:21.893Z,11.09
2022-11-08T07:23:21.691Z,11.10
2022-11-08T07:24:21.295Z,11.19
2022-11-08T07:25:22.132Z,11.36
2022-11-08T07:26:21.984Z,11.47
2022-11-08T07:27:22.183Z,11.46
2022-11-08T07:28:22.063Z,11.72
2022-11-08T07:29:21.297Z,11.75
2022-11-08T07:30:21.253Z,11.95
2022-11-08T07:31:21.281Z,11.98
2022-11-08T07:32:21.255Z,12.09
2022-11-08T07:33:21.716Z,12.27
2022-11-08T07:34:21.262Z,12.38
2022-11-08T07:35:21.267Z,12.49
2022-11-08T07:36:21.243Z,12.54
2022-11-08T07:37:21.249Z,12.62
2022-11-08T07:38:21.239Z,12.65
2022-11-08T07:39:21.255Z,12.82
2022-11-08T07:40:21.262Z,12.82
2022-11-08T07:41:21.248Z,12.89
2022-11-08T07:42:21.246Z,12.95
2022-11-08T07:43:21.256Z,13.12
2022-11-08T07:44:21.247Z,13.11
2022-11-08T07:45:21.266Z,13.29
2022-11-08T07:46:21.247Z,13.33
2022-11-08T07:47:21.221Z,13.30
2022-11-08T07:48:21.246Z,13.25
2022-11-08T07:49:21.255Z,13.33
2022-11-08T07:50:21.256Z,13.26
2022-11-08T07:51:21.244Z,13.23
2022-11-08T07:52:21.238Z,13.33
2022-11-08T07:53:21.479Z,13.44
2022-11-08T07:54:21.246Z,13.28
2022-11-08T07:55:21.237Z,13.59
2022-11-08T07:56:21.238Z,13.69
2022-11-08T07:57:21.228Z,13.69
2022-11-08T07:58:21.225Z,13.89
2022-11-08T07:59:21.223Z,13.91
2022-11-08T08:00:21.209Z,14.04
2022-11-08T08:01:21.240Z,14.17
2022-11-08T08:02:21.298Z,14.21
2022-11-08T08:03:21.689Z,14.32
2022-11-08T08:04:21.232Z,14.22
2022-11-08T08:05:21.236Z,14.21
2022-11-08T08:06:21.250Z,14.17
2022-11-08T08:07:21.209Z,14.18
2022-11-08T08:08:21.234Z,14.28
2022-11-08T08:09:21.211Z,14.15
2022-11-08T08:10:21.215Z,14.17
2022-11-08T08:11:21.247Z,14.22
2022-11-08T08:12:21.221Z,14.15
2022-11-08T08:13:21.387Z,14.37
2022-11-08T08:14:21.227Z,14.28
2022-11-08T08:15:21.232Z,14.29
2022-11-08T08:16:21.214Z,14.28
2022-11-08T08:17:21.257Z,14.27
2022-11-08T08:18:21.210Z,14.36
2022-11-08T08:19:21.218Z,14.43
2022-11-08T08:20:21.221Z,14.52
2022-11-08T08:21:21.243Z,14.45
2022-11-08T08:22:21.233Z,14.57
2022-11-08T08:23:21.357Z,14.64
2022-11-08T08:24:21.213Z,14.47
2022-11-08T08:25:21.240Z,14.42
2022-11-08T08:26:21.250Z,14.37
2022-11-08T08:27:21.230Z,14.33
2022-11-08T08:28:21.239Z,14.27
2022-11-08T08:29:21.230Z,14.29
2022-11-08T08:30:21.225Z,14.24
2022-11-08T08:31:21.215Z,14.28
2022-11-08T08:32:21.262Z,14.32
2022-11-08T08:33:29.689Z,14.36
2022-11-08T08:34:21.228Z,14.35
2022-11-08T08:35:21.226Z,14.47
2022-11-08T08:36:21.233Z,14.40
2022-11-08T08:37:21.222Z,14.33
2022-11-08T08:38:21.243Z,14.27
2022-11-08T08:39:21.250Z,14.29
2022-11-08T08:40:21.245Z,14.35
2022-11-08T08:41:21.251Z,14.36
2022-11-08T08:42:21.273Z,14.51
2022-11-08T08:43:21.536Z,14.61
2022-11-08T08:44:21.252Z,14.61
2022-11-08T08:45:21.246Z,14.55
2022-11-08T08:46:21.252Z,14.68
2022-11-08T08:47:21.217Z,14.69
2022-11-08T08:48:21.250Z,14.77
2022-11-08T08:49:21.213Z,14.83
2022-11-08T08:50:30.048Z,14.73
2022-11-08T08:51:21.215Z,14.80
2022-11-08T08:52:21.243Z,14.92
2022-11-08T08:53:21.757Z,14.98
2022-11-08T08:54:24.549Z,14.95
2022-11-08T08:55:21.252Z,14.99
2022-11-08T08:56:21.381Z,14.94
2022-11-08T08:57:21.302Z,14.92
2022-11-08T08:58:21.224Z,14.96
2022-11-08T09:02:21.293Z,15.25
2022-11-08T09:03:21.681Z,15.34
2022-11-08T09:04:21.234Z,15.31
2022-11-08T09:05:21.965Z,15.44
2022-11-08T09:06:21.258Z,15.35
2022-11-08T09:07:21.981Z,15.36
2022-11-08T09:08:21.278Z,15.39
2022-11-08T09:09:21.275Z,15.39
2022-11-08T09:10:21.224Z,15.35
2022-11-08T09:11:21.231Z,15.43
2022-11-08T09:12:21.303Z,15.41
2022-11-08T09:13:21.943Z,15.43
2022-11-08T09:14:21.383Z,15.44
2022-11-08T09:15:21.256Z,15.41
2022-11-08T09:16:21.273Z,15.50
2022-11-08T09:17:21.242Z,15.43
2022-11-08T09:18:21.438Z,15.44
2022-11-08T09:19:22.042Z,15.47
2022-11-08T09:20:22.084Z,15.57
2022-11-08T09:21:21.383Z,15.57
2022-11-08T09:24:12.649Z,15.57
2022-11-08T09:25:23.683Z,15.60
2022-11-08T09:26:13.891Z,15.50
2022-11-08T09:27:23.134Z,15.53
2022-11-08T09:28:30.972Z,15.62
2022-11-08T09:29:21.182Z,15.62
2022-11-08T09:30:22.313Z,15.69
2022-11-08T09:31:12.624Z,15.75
2022-11-08T09:32:12.680Z,15.75
2022-11-08T09:33:23.011Z,15.90
2022-11-08T09:34:16.278Z,15.92
2022-11-08T09:35:24.887Z,15.71
2022-11-08T09:36:24.894Z,15.75
2022-11-08T09:41:09.001Z,16.11
2022-11-08T09:42:28.705Z,16.11
2022-11-08T09:45:01.000Z,16.49
2022-11-08T09:47:43.136Z,16.78
2022-11-08T09:50:22.949Z,16.75
2022-11-08T09:53:03.123Z,16.75
2022-11-08T09:54:03.012Z,16.67
2022-11-08T09:55:12.517Z,16.70
2022-11-08T09:56:11.592Z,16.56
2022-11-08T09:57:11.090Z,16.53
2022-11-08T09:58:10.614Z,16.61
2022-11-08T09:59:11.165Z,16.63
2022-11-08T10:00:12.199Z,16.66
2022-11-08T10:01:12.480Z,16.78
2022-11-08T10:02:13.825Z,16.85
2022-11-08T10:04:51.024Z,16.94
2022-11-08T10:05:52.604Z,17.11
2022-11-08T10:06:58.062Z,17.36
2022-11-08T10:07:51.676Z,17.44
2022-11-08T10:10:22.881Z,17.66
2022-11-08T10:13:12.096Z,17.59
2022-11-08T10:15:45.036Z,17.48
2022-11-08T10:19:11.395Z,17.33
2022-11-08T10:20:22.577Z,17.46
2022-11-08T10:21:20.051Z,17.37
2022-11-08T10:22:22.112Z,17.41
2022-11-08T10:23:25.192Z,17.46
2022-11-08T10:24:11.314Z,17.40
2022-11-08T10:25:11.292Z,17.55
2022-11-08T10:26:24.146Z,17.44
2022-11-08T10:27:11.299Z,17.30
2022-11-08T10:28:22.190Z,17.48
2022-11-08T10:29:20.760Z,17.49
2022-11-08T10:30:20.017Z,17.51
2022-11-08T10:31:21.317Z,17.56
2022-11-08T10:32:23.342Z,17.49
2022-11-08T10:33:22.432Z,17.40
2022-11-08T10:34:11.327Z,17.33
2022-11-08T10:35:26.955Z,17.36
2022-11-08T10:36:11.352Z,17.22
2022-11-08T10:37:11.343Z,17.31
2022-11-08T10:38:22.434Z,17.16
2022-11-08T10:39:21.507Z,17.26
2022-11-08T10:40:20.523Z,17.31
2022-11-08T10:41:20.582Z,17.34
2022-11-08T10:42:11.338Z,17.31
2022-11-08T10:45:13.967Z,17.11
2022-11-08T10:46:22.581Z,17.01
2022-11-08T10:47:22.757Z,17.03
2022-11-08T10:48:26.681Z,17.00
2022-11-08T10:49:13.941Z,17.07
2022-11-08T10:51:53.410Z,17.06
2022-11-08T10:54:33.782Z,17.03
2022-11-08T10:57:15.680Z,17.19
2022-11-08T10:58:28.774Z,17.22
2022-11-08T10:59:39.362Z,17.21
2022-11-08T11:00:24.438Z,17.25
2022-11-08T11:01:23.938Z,17.18
2022-11-08T11:02:23.208Z,17.23
2022-11-08T11:03:23.949Z,17.22
2022-11-08T11:05:57.098Z,17.31
2022-11-08T11:07:09.440Z,17.49
2022-11-08T11:08:04.694Z,17.51
2022-11-08T11:10:38.145Z,17.79
2022-11-08T11:11:51.822Z,17.79
2022-11-08T11:12:47.357Z,17.87
2022-11-08T11:15:17.531Z,17.99
2022-11-08T11:16:27.680Z,18.07
2022-11-08T11:17:17.745Z,18.17
2022-11-08T11:18:28.197Z,18.37
2022-11-08T11:19:17.692Z,18.42
2022-11-08T11:20:26.341Z,18.54
2022-11-08T11:23:19.832Z,18.55
2022-11-08T11:24:20.683Z,18.48
2022-11-08T11:27:02.547Z,18.72
2022-11-08T11:28:13.571Z,18.91
2022-11-08T11:29:02.677Z,18.88
2022-11-08T11:30:15.906Z,18.91
2022-11-08T11:32:43.997Z,18.88
2022-11-08T11:33:55.617Z,18.88
2022-11-08T11:34:54.561Z,19.06
2022-11-08T11:35:43.872Z,19.23
2022-11-08T11:36:54.104Z,19.31
2022-11-08T11:37:43.897Z,19.32
2022-11-08T11:38:43.904Z,19.31
2022-11-08T11:39:53.140Z,19.22
2022-11-08T11:40:55.788Z,19.08
2022-11-08T11:41:43.877Z,19.07
2022-11-08T11:44:25.552Z,19.22
2022-11-08T11:45:25.473Z,19.22
2022-11-08T11:46:36.203Z,19.22
2022-11-08T11:47:34.619Z,19.23
2022-11-08T11:48:25.481Z,19.28
2022-11-08T11:49:25.478Z,19.21
2022-11-08T11:50:25.497Z,19.21
2022-11-08T11:51:25.505Z,19.39
2022-11-08T11:52:26.034Z,19.40
2022-11-08T11:53:33.744Z,19.21
2022-11-08T11:54:25.485Z,19.10
2022-11-08T11:55:25.487Z,19.14
2022-11-08T11:56:25.549Z,19.21
2022-11-08T11:57:25.481Z,19.31
2022-11-08T11:58:25.477Z,19.46
2022-11-08T11:59:25.507Z,19.62
2022-11-08T12:00:25.498Z,19.44
2022-11-08T12:01:25.509Z,19.44
2022-11-08T12:02:25.593Z,19.43
2022-11-08T12:03:25.530Z,19.48
2022-11-08T12:04:25.577Z,19.41
2022-11-08T12:05:25.542Z,19.50
2022-11-08T12:06:25.592Z,19.29
2022-11-08T12:07:25.530Z,19.36
2022-11-08T12:08:27.099Z,19.22
2022-11-08T12:09:25.492Z,19.32
2022-11-08T12:10:25.539Z,19.31
2022-11-08T12:11:25.540Z,19.19
2022-11-08T12:12:25.694Z,19.25
2022-11-08T12:13:25.598Z,19.22
2022-11-08T12:14:34.671Z,19.14
2022-11-08T12:15:25.525Z,19.11
2022-11-08T12:16:25.505Z,18.85
2022-11-08T12:17:25.583Z,18.88
2022-11-08T12:18:42.166Z,18.73
2022-11-08T12:19:25.497Z,18.75
2022-11-08T12:20:27.353Z,18.75
2022-11-08T12:21:25.511Z,18.75
2022-11-08T12:22:25.527Z,18.75
2022-11-08T12:23:26.211Z,18.78
2022-11-08T12:24:25.563Z,18.69
2022-11-08T12:25:25.551Z,18.70
2022-11-08T12:26:27.622Z,18.60
2022-11-08T12:27:25.544Z,18.58
2022-11-08T12:28:25.525Z,18.57
2022-11-08T12:29:25.550Z,18.58
2022-11-08T12:30:25.536Z,18.57
2022-11-08T12:31:25.543Z,18.54
2022-11-08T12:32:26.116Z,18.54
2022-11-08T12:33:25.686Z,18.42
2022-11-08T12:34:25.562Z,18.45
2022-11-08T12:35:36.733Z,18.52
2022-11-08T12:36:25.517Z,18.45
2022-11-08T12:37:25.554Z,18.47
2022-11-08T12:38:25.529Z,18.50
2022-11-08T12:39:25.538Z,18.44
2022-11-08T12:40:25.579Z,18.44
2022-11-08T12:41:25.542Z,18.36
2022-11-08T12:42:26.242Z,18.44
2022-11-08T12:43:25.561Z,18.41
2022-11-08T12:44:25.556Z,18.37
2022-11-08T12:45:25.562Z,18.33
2022-11-08T12:46:25.559Z,18.27
2022-11-08T12:47:25.568Z,18.33
2022-11-08T12:48:25.580Z,18.21
2022-11-08T12:49:25.581Z,18.26
2022-11-08T12:50:25.564Z,18.32
2022-11-08T12:51:25.592Z,18.32
2022-11-08T12:52:26.298Z,18.27
2022-11-08T12:53:25.548Z,18.27
2022-11-08T12:54:25.576Z,18.33
2022-11-08T12:55:25.655Z,18.20
2022-11-08T12:56:25.610Z,18.20
2022-11-08T12:57:25.563Z,18.18
2022-11-08T12:58:25.558Z,18.21
2022-11-08T12:59:25.619Z,18.29
2022-11-08T13:00:25.577Z,18.12
2022-11-08T13:01:25.611Z,18.15
2022-11-08T13:02:26.428Z,18.27
2022-11-08T13:03:25.575Z,18.14
2022-11-08T13:04:25.580Z,18.27
2022-11-08T13:05:25.633Z,18.08
2022-11-08T13:06:25.665Z,18.03
2022-11-08T13:07:25.620Z,18.02
2022-11-08T13:08:25.595Z,18.14
2022-11-08T13:09:25.587Z,18.21
2022-11-08T13:10:25.608Z,18.23
2022-11-08T13:11:25.601Z,18.12
2022-11-08T13:12:25.594Z,18.23
2022-11-08T13:13:25.582Z,18.18
2022-11-08T13:14:25.648Z,18.10
2022-11-08T13:15:25.594Z,18.02
2022-11-08T13:16:25.593Z,17.95
2022-11-08T13:17:25.594Z,17.96
2022-11-08T13:18:25.660Z,17.90
2022-11-08T13:19:25.624Z,17.93
2022-11-08T13:20:25.620Z,17.84
2022-11-08T13:21:25.604Z,17.78
2022-11-08T13:22:25.618Z,17.81
2022-11-08T13:23:25.613Z,17.79
2022-11-08T13:24:43.315Z,17.71
2022-11-08T13:25:27.343Z,17.72
2022-11-08T13:26:25.612Z,17.77
2022-11-08T13:27:25.666Z,17.78
2022-11-08T13:28:25.638Z,17.81
2022-11-08T13:29:25.631Z,17.84
2022-11-08T13:30:25.654Z,17.84
2022-11-08T13:31:25.647Z,17.84
2022-11-08T13:32:26.227Z,17.89
2022-11-08T13:33:25.662Z,17.93
2022-11-08T13:34:25.653Z,17.93
2022-11-08T13:35:25.660Z,17.87
2022-11-08T13:36:27.214Z,17.89
2022-11-08T13:37:25.632Z,17.75
2022-11-08T13:38:25.619Z,17.75
2022-11-08T13:39:25.622Z,17.70
2022-11-08T13:40:25.622Z,17.62
2022-11-08T13:41:25.654Z,17.64
2022-11-08T13:42:25.668Z,17.68
2022-11-08T13:43:26.171Z,17.66
2022-11-08T13:44:25.653Z,17.70
2022-11-08T13:45:25.701Z,17.66
2022-11-08T13:46:25.618Z,17.58
2022-11-08T13:47:25.619Z,17.46
2022-11-08T13:48:25.979Z,17.51
2022-11-08T13:49:25.627Z,17.62
2022-11-08T13:50:25.696Z,17.62
2022-11-08T13:51:25.637Z,17.58
2022-11-08T13:52:25.621Z,17.71
2022-11-08T13:53:28.175Z,17.52
2022-11-08T13:54:25.661Z,17.58
2022-11-08T13:55:25.637Z,17.49
2022-11-08T13:56:26.690Z,17.55
2022-11-08T13:57:25.722Z,17.52
2022-11-08T13:58:25.782Z,17.44
2022-11-08T13:59:27.055Z,17.48
2022-11-08T14:00:25.641Z,17.48
2022-11-08T14:01:25.660Z,17.28
2022-11-08T14:02:25.656Z,17.34
2022-11-08T14:03:25.628Z,17.33
2022-11-08T14:04:25.663Z,17.34
2022-11-08T14:05:26.188Z,17.37
2022-11-08T14:06:25.759Z,17.31
2022-11-08T14:07:25.949Z,17.30
2022-11-08T14:08:25.663Z,17.33
2022-11-08T14:09:29.270Z,17.31
2022-11-08T14:10:25.731Z,17.37
2022-11-08T14:11:25.758Z,17.36
2022-11-08T14:12:25.659Z,17.31